Kipawa, Canada
Current Conditions -  °F | °C
As of 8:00 PM on Friday 19 Dec 2014 (Local Time) from CYXR Reporting Station
Clear Clear  
Wind Chill: -2°   Ceiling: Unl
Heat Index: -2°   Visibility: 9mi
Dew Point: -6°   Wind: 2mph
Humidity: 85%   Direction: 20°NNE
Pressure: 30.31"   Gusts: NA
Location:  46.77°N, 78.98°W
Report Text: CYXR 200100Z AUTO 02002KT 9SM CLR M19/M21 A3031 RMK SLP289
Loading
Personal Weather Stations






























Interactive Weather Map New forecast layout! Learn more

10-Day Weather Forecast

Advertisements
Track Severe Weather on mobile